createdAt,value
2023-03-02T00:01:22.077Z,7.35
2023-03-02T00:03:49.641Z,8.15
2023-03-02T00:06:17.013Z,10.05
2023-03-02T00:08:44.223Z,7.75
2023-03-02T00:11:11.638Z,8.20
2023-03-02T00:13:39.192Z,8.10
2023-03-02T00:16:06.496Z,7.03
2023-03-02T00:18:33.572Z,7.15
2023-03-02T00:21:00.589Z,6.65
2023-03-02T00:23:27.676Z,7.38
2023-03-02T00:25:54.684Z,8.30
2023-03-02T00:28:21.683Z,6.95
2023-03-02T00:30:49.022Z,8.00
2023-03-02T00:33:16.131Z,7.70
2023-03-02T00:35:43.165Z,6.65
2023-03-02T00:38:10.250Z,7.05
2023-03-02T00:40:37.461Z,7.15
2023-03-02T00:43:04.674Z,7.93
2023-03-02T00:45:31.705Z,8.48
2023-03-02T00:47:58.814Z,7.40
2023-03-02T00:50:25.942Z,7.32
2023-03-02T00:52:52.991Z,7.60
2023-03-02T00:55:20.033Z,7.68
2023-03-02T00:57:54.908Z,8.27
2023-03-02T01:00:22.933Z,9.10
2023-03-02T01:02:50.600Z,8.82
2023-03-02T01:05:18.036Z,10.07
2023-03-02T01:07:45.212Z,10.52
2023-03-02T01:10:12.948Z,9.43
2023-03-02T01:12:39.959Z,11.50
2023-03-02T01:15:07.612Z,9.80
2023-03-02T01:17:34.702Z,9.63
2023-03-02T01:20:01.703Z,8.73
2023-03-02T01:22:28.833Z,8.95
2023-03-02T01:24:55.934Z,8.95
2023-03-02T01:27:22.992Z,8.80
2023-03-02T01:29:50.677Z,9.00
2023-03-02T01:32:18.078Z,9.10
2023-03-02T01:34:45.231Z,8.98
2023-03-02T01:37:12.244Z,9.57
2023-03-02T01:39:39.405Z,8.25
2023-03-02T01:42:06.465Z,8.05
2023-03-02T01:44:34.593Z,7.68
2023-03-02T01:47:02.350Z,8.32
2023-03-02T01:49:29.408Z,7.95
2023-03-02T01:51:56.491Z,8.55
2023-03-02T01:54:24.053Z,8.35
2023-03-02T01:56:53.400Z,8.07
2023-03-02T01:59:22.170Z,8.45
2023-03-02T02:01:52.033Z,8.05
2023-03-02T02:04:19.585Z,7.13
2023-03-02T02:06:54.502Z,7.47
2023-03-02T02:09:23.264Z,7.80
2023-03-02T02:11:50.322Z,7.47
2023-03-02T02:14:17.593Z,7.68
2023-03-02T02:16:44.817Z,6.95
2023-03-02T02:19:15.658Z,7.95
2023-03-02T02:21:42.667Z,8.10
2023-03-02T02:24:12.609Z,7.45
2023-03-02T02:26:50.650Z,7.60
2023-03-02T02:29:22.657Z,6.32
2023-03-02T02:31:53.904Z,7.57
2023-03-02T02:34:24.271Z,6.30
2023-03-02T02:36:53.340Z,8.43
2023-03-02T02:39:23.035Z,6.63
2023-03-02T02:41:51.800Z,6.95
2023-03-02T02:44:19.625Z,7.20
2023-03-02T02:46:46.934Z,7.07
2023-03-02T02:49:40.444Z,6.10
2023-03-02T02:52:07.659Z,7.97
2023-03-02T02:54:35.906Z,7.28
2023-03-02T02:57:04.193Z,8.60
2023-03-02T02:59:36.132Z,8.10
2023-03-02T03:02:03.306Z,7.55
2023-03-02T03:04:31.352Z,7.03
2023-03-02T03:06:59.934Z,7.45
2023-03-02T03:09:27.602Z,7.90
2023-03-02T03:11:59.311Z,8.77
2023-03-02T03:14:31.220Z,6.35
2023-03-02T03:16:58.266Z,7.57
2023-03-02T03:19:26.992Z,7.57
2023-03-02T03:21:55.446Z,8.27
2023-03-02T03:24:22.845Z,8.20
2023-03-02T03:26:50.240Z,6.80
2023-03-02T03:29:18.304Z,6.65
2023-03-02T03:31:45.513Z,8.05
2023-03-02T03:34:12.567Z,6.65
2023-03-02T03:36:39.567Z,7.82
2023-03-02T03:39:07.117Z,6.57
2023-03-02T03:41:34.187Z,7.63
2023-03-02T03:44:01.567Z,7.57
2023-03-02T03:46:29.090Z,7.82
2023-03-02T03:48:56.235Z,7.80
2023-03-02T03:51:23.734Z,6.68
2023-03-02T03:53:59.716Z,7.43
2023-03-02T03:56:28.042Z,7.40
2023-03-02T03:59:06.109Z,8.52
2023-03-02T04:01:47.431Z,7.00
2023-03-02T04:04:25.271Z,7.60
2023-03-02T04:06:52.998Z,7.50
2023-03-02T04:09:20.019Z,7.45
2023-03-02T04:11:49.160Z,7.55
2023-03-02T04:14:16.963Z,8.20
2023-03-02T04:16:44.193Z,6.65
2023-03-02T04:19:12.070Z,6.55
2023-03-02T04:21:40.246Z,7.80
2023-03-02T04:24:08.165Z,7.82
2023-03-02T04:26:35.575Z,7.40
2023-03-02T04:29:02.942Z,8.10
2023-03-02T04:31:32.946Z,7.53
2023-03-02T04:34:00.100Z,7.22
2023-03-02T04:36:27.185Z,8.05
2023-03-02T04:38:54.423Z,7.32
2023-03-02T04:41:22.019Z,7.80
2023-03-02T04:43:49.415Z,7.45
2023-03-02T04:46:18.488Z,8.85
2023-03-02T04:48:45.524Z,9.02
2023-03-02T04:51:24.123Z,7.93
2023-03-02T04:54:01.884Z,7.50
2023-03-02T04:56:28.912Z,7.97
2023-03-02T04:58:56.392Z,8.00
2023-03-02T05:01:23.729Z,7.32
2023-03-02T05:03:51.906Z,8.02
2023-03-02T05:06:19.393Z,7.68
2023-03-02T05:08:46.517Z,7.93
2023-03-02T05:11:22.275Z,6.55
2023-03-02T05:13:57.232Z,8.43
2023-03-02T05:16:24.905Z,8.27
2023-03-02T05:18:52.054Z,9.32
2023-03-02T05:21:19.448Z,8.10
2023-03-02T05:23:47.827Z,7.10
2023-03-02T05:26:15.282Z,8.15
2023-03-02T05:28:42.472Z,6.72
2023-03-02T05:31:10.261Z,8.57
2023-03-02T05:33:37.322Z,7.93
2023-03-02T05:36:04.425Z,8.25
2023-03-02T05:38:31.718Z,7.88
2023-03-02T05:40:58.846Z,8.40
2023-03-02T05:43:25.947Z,9.30
2023-03-02T05:45:53.016Z,7.63
2023-03-02T05:48:20.060Z,8.27
2023-03-02T05:50:47.136Z,9.65
2023-03-02T05:53:14.200Z,8.40
2023-03-02T05:55:41.197Z,9.05
2023-03-02T05:58:11.807Z,7.88
2023-03-02T06:00:38.827Z,7.30
2023-03-02T06:03:05.988Z,8.63
2023-03-02T06:05:33.115Z,7.65
2023-03-02T06:08:00.189Z,8.70
2023-03-02T06:10:27.421Z,8.63
2023-03-02T06:12:54.578Z,8.55
2023-03-02T06:15:21.616Z,11.20
2023-03-02T06:17:48.979Z,8.25
2023-03-02T06:20:16.553Z,8.55
2023-03-02T06:22:45.371Z,9.23
2023-03-02T06:25:13.548Z,8.88
2023-03-02T06:27:41.156Z,8.93
2023-03-02T06:30:10.965Z,10.45
2023-03-02T06:32:38.263Z,8.55
2023-03-02T06:35:06.769Z,9.40
2023-03-02T06:37:34.101Z,8.75
2023-03-02T06:40:01.283Z,8.10
2023-03-02T06:42:28.719Z,8.93
2023-03-02T06:44:55.790Z,8.93
2023-03-02T06:47:23.454Z,9.07
2023-03-02T06:49:50.486Z,8.48
2023-03-02T06:52:18.057Z,8.75
2023-03-02T06:54:45.113Z,9.90
2023-03-02T06:57:12.172Z,9.50
2023-03-02T06:59:39.193Z,11.10
2023-03-02T07:02:06.298Z,7.95
2023-03-02T07:04:33.370Z,8.63
2023-03-02T07:07:00.451Z,9.32
2023-03-02T07:09:27.612Z,9.13
2023-03-02T07:11:54.619Z,14.55
2023-03-02T07:14:21.683Z,13.00
2023-03-02T07:16:48.735Z,9.25
2023-03-02T07:19:15.862Z,10.27
2023-03-02T07:21:42.880Z,9.43
2023-03-02T07:24:09.976Z,13.45
2023-03-02T07:26:37.003Z,13.82
2023-03-02T07:29:04.052Z,14.23
2023-03-02T07:31:31.484Z,12.35
2023-03-02T07:33:58.783Z,12.75
2023-03-02T07:36:26.352Z,22.98
2023-03-02T07:38:54.756Z,25.92
2023-03-02T07:41:22.753Z,24.77
2023-03-02T07:43:49.862Z,48.40
2023-03-02T07:46:17.129Z,28.83
2023-03-02T07:48:45.290Z,21.88
2023-03-02T07:51:12.339Z,10.45
2023-03-02T07:53:39.411Z,19.20
2023-03-02T07:56:07.853Z,11.00
2023-03-02T07:58:35.424Z,8.67
2023-03-02T08:01:02.574Z,8.40
2023-03-02T08:03:29.672Z,8.50
2023-03-02T08:05:56.724Z,9.40
2023-03-02T08:08:23.785Z,9.97
2023-03-02T08:10:50.904Z,10.03
2023-03-02T08:13:17.938Z,9.67
2023-03-02T08:15:45.036Z,9.80
2023-03-02T08:18:12.095Z,17.77
2023-03-02T08:20:39.202Z,9.00
2023-03-02T08:23:06.249Z,9.30
2023-03-02T08:25:33.424Z,9.80
2023-03-02T08:28:00.437Z,12.73
2023-03-02T08:30:27.591Z,11.70
2023-03-02T08:32:54.640Z,16.00
2023-03-02T08:35:22.134Z,12.30
2023-03-02T08:37:49.236Z,12.73
2023-03-02T08:40:17.437Z,14.43
2023-03-02T08:42:44.555Z,19.10
2023-03-02T08:45:11.721Z,11.07
2023-03-02T08:47:41.992Z,13.40
2023-03-02T08:50:09.322Z,12.60
2023-03-02T08:52:36.348Z,14.23
2023-03-02T08:55:04.272Z,12.80
2023-03-02T08:57:31.507Z,10.43
2023-03-02T08:59:58.536Z,10.23
2023-03-02T09:02:25.559Z,11.50
2023-03-02T09:04:52.750Z,10.63
2023-03-02T09:07:19.892Z,10.17
2023-03-02T09:09:46.968Z,10.63
2023-03-02T09:12:13.993Z,8.97
2023-03-02T09:14:41.115Z,10.40
2023-03-02T09:17:08.155Z,11.27
2023-03-02T09:19:43.270Z,9.07
2023-03-02T09:22:11.516Z,7.60
2023-03-02T09:24:38.611Z,8.37
2023-03-02T09:27:05.678Z,10.70
2023-03-02T09:29:32.669Z,7.50
2023-03-02T09:32:00.767Z,8.20
2023-03-02T09:34:27.822Z,8.33
2023-03-02T09:36:54.826Z,8.20
2023-03-02T09:39:21.867Z,9.00
2023-03-02T09:42:01.960Z,7.90
2023-03-02T09:44:44.374Z,7.97
2023-03-02T09:47:33.421Z,8.80
2023-03-02T09:50:11.078Z,8.13
2023-03-02T09:52:44.809Z,7.57
2023-03-02T09:55:15.054Z,7.47
2023-03-02T09:57:43.314Z,7.27
2023-03-02T10:00:22.964Z,7.77
2023-03-02T10:03:14.953Z,8.00
2023-03-02T10:05:45.892Z,7.00
2023-03-02T10:08:15.045Z,7.60
2023-03-02T10:11:06.616Z,6.13
2023-03-02T10:13:44.259Z,7.27
2023-03-02T10:16:38.529Z,6.07
2023-03-02T10:19:09.422Z,6.60
2023-03-02T10:21:40.947Z,7.13
2023-03-02T10:24:24.686Z,6.93
2023-03-02T10:26:53.887Z,7.50
2023-03-02T10:29:30.168Z,7.40
2023-03-02T10:32:04.849Z,6.73
2023-03-02T10:34:32.071Z,7.20
2023-03-02T10:36:59.152Z,6.73
2023-03-02T10:39:26.206Z,7.50
2023-03-02T10:42:13.574Z,6.80
2023-03-02T10:44:42.765Z,6.43
2023-03-02T10:47:20.326Z,6.30
2023-03-02T10:49:48.097Z,6.03
2023-03-02T10:52:25.444Z,7.10
2023-03-02T10:55:02.854Z,6.63
2023-03-02T10:57:30.716Z,6.53
2023-03-02T11:00:06.080Z,6.40
2023-03-02T11:02:34.742Z,6.40
2023-03-02T11:05:20.730Z,5.43
2023-03-02T11:08:02.020Z,5.50
2023-03-02T11:10:34.241Z,5.70
2023-03-02T11:13:02.012Z,5.60
2023-03-02T11:15:35.303Z,6.80
2023-03-02T11:18:02.396Z,5.67
2023-03-02T11:20:38.550Z,6.43
2023-03-02T11:23:11.403Z,5.30
2023-03-02T11:25:40.402Z,6.40
2023-03-02T11:28:13.346Z,5.70
2023-03-02T11:30:44.017Z,5.43
2023-03-02T11:33:18.064Z,7.53
2023-03-02T11:35:45.152Z,5.40
2023-03-02T11:38:18.440Z,5.40
2023-03-02T11:41:00.532Z,5.43
2023-03-02T11:43:27.681Z,4.13
2023-03-02T11:45:58.870Z,4.67
2023-03-02T11:48:38.711Z,3.70
2023-03-02T11:51:07.140Z,6.37
2023-03-02T11:53:39.994Z,4.93
2023-03-02T11:56:07.318Z,5.23
2023-03-02T11:58:34.851Z,6.30
2023-03-02T12:01:02.584Z,5.23
2023-03-02T12:03:32.639Z,5.03
2023-03-02T12:06:02.170Z,5.33
2023-03-02T12:08:34.562Z,5.27
2023-03-02T12:11:09.877Z,4.17
2023-03-02T12:13:40.723Z,4.90
2023-03-02T12:16:21.479Z,4.43
2023-03-02T12:18:49.511Z,4.23
2023-03-02T12:21:17.942Z,4.63
2023-03-02T12:23:48.121Z,4.70
2023-03-02T12:26:21.262Z,4.77
2023-03-02T12:28:59.601Z,4.30
2023-03-02T12:31:27.161Z,3.60
2023-03-02T12:33:54.473Z,3.80
2023-03-02T12:36:33.083Z,3.50
2023-03-02T12:39:10.761Z,3.13
2023-03-02T12:41:41.392Z,3.63
2023-03-02T12:44:27.726Z,3.93
2023-03-02T12:46:56.253Z,3.27
2023-03-02T12:49:45.507Z,3.30
2023-03-02T12:52:24.139Z,3.50
2023-03-02T12:54:59.687Z,5.13
2023-03-02T12:57:27.116Z,3.97
2023-03-02T12:59:55.135Z,4.40
2023-03-02T13:02:23.734Z,4.70
2023-03-02T13:04:58.115Z,4.30
2023-03-02T13:07:26.619Z,3.63
2023-03-02T13:09:56.866Z,4.00
2023-03-02T13:12:24.901Z,4.73
2023-03-02T13:14:54.834Z,3.53
2023-03-02T13:17:30.884Z,4.20
2023-03-02T13:20:02.177Z,3.60
2023-03-02T13:22:29.662Z,5.70
2023-03-02T13:25:00.298Z,3.47
2023-03-02T13:27:27.740Z,4.23
2023-03-02T13:29:58.133Z,5.30
2023-03-02T13:32:25.383Z,3.90
2023-03-02T13:34:56.820Z,3.00
2023-03-02T13:37:30.396Z,4.13
2023-03-02T13:40:01.794Z,3.60
2023-03-02T13:42:30.547Z,3.70
2023-03-02T13:44:57.618Z,6.30
2023-03-02T13:47:25.158Z,4.77
2023-03-02T13:49:52.279Z,4.27
2023-03-02T13:52:45.626Z,3.63
2023-03-02T13:55:16.607Z,3.53
2023-03-02T13:57:45.863Z,3.17
2023-03-02T14:00:31.446Z,3.53
2023-03-02T14:02:58.564Z,3.33
2023-03-02T14:05:32.831Z,3.23
2023-03-02T14:08:00.268Z,3.07
2023-03-02T14:10:27.696Z,4.47
2023-03-02T14:12:57.636Z,3.30
2023-03-02T14:15:25.347Z,2.80
2023-03-02T14:17:52.385Z,3.00
2023-03-02T14:20:20.587Z,3.07
2023-03-02T14:22:48.706Z,3.57
2023-03-02T14:25:15.908Z,3.17
2023-03-02T14:27:43.367Z,3.13
2023-03-02T14:30:21.119Z,3.00
2023-03-02T14:32:48.256Z,3.43
2023-03-02T14:35:16.565Z,3.37
2023-03-02T14:37:44.994Z,3.43
2023-03-02T14:40:17.096Z,3.10
2023-03-02T14:42:44.333Z,3.30
2023-03-02T14:45:11.604Z,3.63
2023-03-02T14:47:38.701Z,3.47
2023-03-02T14:50:05.928Z,3.63
2023-03-02T14:52:36.321Z,3.80
2023-03-02T14:55:05.551Z,3.70
2023-03-02T14:57:34.008Z,3.10
2023-03-02T15:00:01.141Z,3.50
2023-03-02T15:02:28.447Z,3.40
2023-03-02T15:04:56.940Z,3.17
2023-03-02T15:07:25.200Z,3.17
2023-03-02T15:09:52.232Z,2.70
2023-03-02T15:12:19.306Z,3.20
2023-03-02T15:14:46.324Z,2.63
2023-03-02T15:17:13.350Z,2.97
2023-03-02T15:19:40.399Z,3.43
2023-03-02T15:22:07.516Z,3.00
2023-03-02T15:24:34.547Z,3.00
2023-03-02T15:27:01.978Z,2.40
2023-03-02T15:29:29.010Z,2.80
2023-03-02T15:31:56.129Z,3.57
2023-03-02T15:34:23.208Z,3.10
2023-03-02T15:36:50.230Z,3.77
2023-03-02T15:39:17.245Z,3.40
2023-03-02T15:41:44.536Z,3.80
2023-03-02T15:44:22.846Z,3.30
2023-03-02T15:46:59.712Z,3.70
2023-03-02T15:49:28.458Z,3.00
2023-03-02T15:51:59.850Z,3.40
2023-03-02T15:54:27.379Z,3.17
2023-03-02T15:56:54.492Z,3.23
2023-03-02T15:59:22.531Z,3.27
2023-03-02T16:01:49.652Z,3.60
2023-03-02T16:04:16.824Z,3.70
2023-03-02T16:06:43.986Z,3.23
2023-03-02T16:09:11.074Z,3.00
2023-03-02T16:11:38.094Z,2.60
2023-03-02T16:14:05.207Z,2.70
2023-03-02T16:16:32.287Z,2.87
2023-03-02T16:18:59.825Z,2.93
2023-03-02T16:21:28.327Z,3.20
2023-03-02T16:24:02.783Z,2.63
2023-03-02T16:26:29.840Z,3.57
2023-03-02T16:28:56.860Z,3.60
2023-03-02T16:31:27.023Z,3.07
2023-03-02T16:33:58.001Z,3.53
2023-03-02T16:36:26.007Z,3.30
2023-03-02T16:38:53.104Z,3.00
2023-03-02T16:41:21.404Z,2.73
2023-03-02T16:43:49.792Z,4.27
2023-03-02T16:46:17.702Z,3.40
2023-03-02T16:48:45.446Z,2.50
2023-03-02T16:51:13.745Z,3.17
2023-03-02T16:53:41.052Z,3.40
2023-03-02T16:56:09.015Z,3.20
2023-03-02T16:58:38.234Z,3.90
2023-03-02T17:01:06.432Z,2.60
2023-03-02T17:03:33.512Z,4.23
2023-03-02T17:06:01.471Z,3.47
2023-03-02T17:08:28.599Z,3.60
2023-03-02T17:10:55.664Z,3.63
2023-03-02T17:13:22.723Z,3.03
2023-03-02T17:15:49.809Z,2.87
2023-03-02T17:18:17.200Z,2.90
2023-03-02T17:20:44.689Z,3.03
2023-03-02T17:23:12.820Z,3.05
2023-03-02T17:25:40.117Z,2.95
2023-03-02T17:28:07.207Z,4.90
2023-03-02T17:30:34.255Z,4.20
2023-03-02T17:33:01.295Z,2.80
2023-03-02T17:35:28.406Z,2.60
2023-03-02T17:37:56.595Z,3.50
2023-03-02T17:40:23.722Z,3.92
2023-03-02T17:42:54.011Z,2.90
2023-03-02T17:45:23.782Z,2.80
2023-03-02T17:47:51.378Z,3.30
2023-03-02T17:50:18.503Z,3.60
2023-03-02T17:52:45.530Z,5.55
2023-03-02T17:55:13.676Z,4.32
2023-03-02T17:57:40.787Z,3.60
2023-03-02T18:00:11.126Z,3.47
2023-03-02T18:02:38.137Z,3.20
2023-03-02T18:05:05.328Z,2.95
2023-03-02T18:07:32.352Z,3.38
2023-03-02T18:09:59.433Z,3.40
2023-03-02T18:12:26.470Z,2.58
2023-03-02T18:14:53.485Z,3.13
2023-03-02T18:17:20.714Z,2.58
2023-03-02T18:19:48.050Z,3.20
2023-03-02T18:22:15.306Z,3.33
2023-03-02T18:24:42.327Z,3.58
2023-03-02T18:27:09.340Z,3.60
2023-03-02T18:29:36.378Z,2.72
2023-03-02T18:32:03.444Z,3.40
2023-03-02T18:34:31.500Z,3.92
2023-03-02T18:36:58.562Z,4.70
2023-03-02T18:39:25.708Z,3.80
2023-03-02T18:41:52.952Z,3.78
2023-03-02T18:44:20.125Z,3.60
2023-03-02T18:46:47.262Z,3.42
2023-03-02T18:49:14.334Z,4.20
2023-03-02T18:51:41.410Z,4.28
2023-03-02T18:54:08.473Z,5.85
2023-03-02T18:56:35.609Z,4.90
2023-03-02T18:59:05.609Z,5.50
2023-03-02T19:01:32.722Z,5.55
2023-03-02T19:04:02.126Z,5.57
2023-03-02T19:06:30.339Z,6.30
2023-03-02T19:08:57.375Z,7.10
2023-03-02T19:11:24.479Z,6.00
2023-03-02T19:13:51.514Z,6.45
2023-03-02T19:16:18.806Z,7.70
2023-03-02T19:18:46.034Z,7.95
2023-03-02T19:21:13.179Z,6.72
2023-03-02T19:23:41.128Z,7.55
2023-03-02T19:26:08.596Z,6.55
2023-03-02T19:28:38.381Z,6.85
2023-03-02T19:31:08.765Z,5.97
2023-03-02T19:33:36.333Z,7.03
2023-03-02T19:36:03.771Z,5.82
2023-03-02T19:38:31.175Z,6.35
2023-03-02T19:40:59.185Z,6.53
2023-03-02T19:43:27.046Z,6.45
2023-03-02T19:45:54.456Z,7.15
2023-03-02T19:48:21.587Z,6.20
2023-03-02T19:50:48.717Z,6.68
2023-03-02T19:53:17.862Z,6.20
2023-03-02T19:55:45.453Z,5.95
2023-03-02T19:58:17.289Z,5.88
2023-03-02T20:00:45.109Z,9.90
2023-03-02T20:03:12.358Z,7.35
2023-03-02T20:05:39.937Z,6.75
2023-03-02T20:08:07.508Z,5.18
2023-03-02T20:10:42.384Z,4.88
2023-03-02T20:13:09.626Z,5.30
2023-03-02T20:15:38.670Z,5.53
2023-03-02T20:18:07.319Z,5.70
2023-03-02T20:20:35.709Z,5.70
2023-03-02T20:23:04.441Z,5.35
2023-03-02T20:25:31.780Z,5.68
2023-03-02T20:27:59.052Z,7.07
2023-03-02T20:30:31.436Z,8.18
2023-03-02T20:32:59.447Z,8.10
2023-03-02T20:35:27.203Z,8.10
2023-03-02T20:37:56.101Z,7.82
2023-03-02T20:40:23.185Z,13.10
2023-03-02T20:42:50.287Z,8.93
2023-03-02T20:45:17.413Z,7.80
2023-03-02T20:47:45.477Z,6.38
2023-03-02T20:50:15.842Z,7.85
2023-03-02T20:52:42.856Z,6.35
2023-03-02T20:55:11.001Z,6.88
2023-03-02T20:57:38.231Z,6.70
2023-03-02T21:00:07.027Z,7.05
2023-03-02T21:02:34.047Z,7.30
2023-03-02T21:05:01.164Z,7.30
2023-03-02T21:07:28.487Z,6.95
2023-03-02T21:09:55.493Z,7.03
2023-03-02T21:12:22.567Z,8.15
2023-03-02T21:14:49.670Z,8.38
2023-03-02T21:17:16.709Z,7.05
2023-03-02T21:19:43.790Z,7.40
2023-03-02T21:22:10.992Z,6.85
2023-03-02T21:24:42.136Z,5.93
2023-03-02T21:27:09.257Z,6.70
2023-03-02T21:29:37.431Z,6.13
2023-03-02T21:32:06.190Z,5.70
2023-03-02T21:34:33.277Z,6.55
2023-03-02T21:37:00.355Z,6.18
2023-03-02T21:39:27.406Z,5.82
2023-03-02T21:41:55.660Z,6.40
2023-03-02T21:44:22.761Z,7.05
2023-03-02T21:46:50.788Z,6.28
2023-03-02T21:49:19.350Z,6.85
2023-03-02T21:51:48.904Z,6.32
2023-03-02T21:54:17.940Z,7.55
2023-03-02T21:56:45.099Z,6.93
2023-03-02T21:59:12.611Z,6.00
2023-03-02T22:01:39.740Z,6.28
2023-03-02T22:04:07.322Z,6.75
2023-03-02T22:06:35.426Z,6.13
2023-03-02T22:09:02.652Z,7.07
2023-03-02T22:11:31.855Z,6.68
2023-03-02T22:13:59.779Z,7.63
2023-03-02T22:16:33.781Z,7.07
2023-03-02T22:19:01.186Z,8.55
2023-03-02T22:21:36.778Z,20.40
2023-03-02T22:24:09.806Z,12.27
2023-03-02T22:26:39.452Z,10.07
2023-03-02T22:29:14.363Z,10.80
2023-03-02T22:31:49.302Z,11.43
2023-03-02T22:34:20.112Z,12.15
2023-03-02T22:36:48.771Z,7.90
2023-03-02T22:39:17.708Z,6.70
2023-03-02T22:41:44.886Z,7.65
2023-03-02T22:44:15.191Z,8.02
2023-03-02T22:46:42.812Z,9.20
2023-03-02T22:49:13.679Z,9.55
2023-03-02T22:51:40.855Z,17.45
2023-03-02T22:54:15.637Z,16.83
2023-03-02T22:56:44.827Z,14.85
2023-03-02T22:59:18.187Z,11.40
2023-03-02T23:01:45.818Z,10.18
2023-03-02T23:04:18.212Z,9.55
2023-03-02T23:06:55.896Z,8.98
2023-03-02T23:09:22.953Z,8.82
2023-03-02T23:11:50.854Z,11.23
2023-03-02T23:14:19.985Z,10.07
2023-03-02T23:16:48.257Z,11.85
2023-03-02T23:19:15.461Z,11.43
2023-03-02T23:21:45.973Z,13.35
2023-03-02T23:24:13.471Z,14.70
2023-03-02T23:26:40.777Z,13.88
2023-03-02T23:29:08.315Z,13.73
2023-03-02T23:31:35.589Z,12.55
2023-03-02T23:34:02.602Z,15.43
2023-03-02T23:36:30.840Z,13.40
2023-03-02T23:38:58.711Z,12.93
2023-03-02T23:41:26.768Z,13.15
2023-03-02T23:43:53.982Z,12.70
2023-03-02T23:46:21.420Z,13.32
2023-03-02T23:48:48.855Z,11.15
2023-03-02T23:51:16.151Z,9.88
2023-03-02T23:53:43.325Z,8.85
2023-03-02T23:56:11.163Z,10.43
2023-03-02T23:58:38.447Z,17.08
